Hovedside
METAR-TAF:

METAR-TAF

Lufthavner :

Kemi-Torneå lufthavn

Kemi, Finland

breddegrad: 65-47N, lengdegrad: 024-35E, høyde over havet: 15 m

Gjeldene værobservasjon

Denne rapporten ble laget for 40 minutter siden, klokken 05:50 UTC
Vind 1 kt fra skiftende retning
Temperatur -3°C
Luftfuktighet 93%
Trykk 1017 hPa
Sikt 10 km eller mer
ingen skyer under 1500 m og ingen bygeskyer

METAR: EFKE 150550Z AUTO VRB01KT CAVOK M03/M04 Q1017

Tid: 08:30 (06:30 UTC)

Varsel

Denne rapporten ble laget for 1 time og 3 minutter siden, klokken 05:27 UTC
Varsel gyldig fra 15. klokken 06 UTC til 15. klokken 15 UTC
Vind 3 kt fra Vest
Sikt 10 km eller mer
ingen skyer under 1500 m og ingen bygeskyer
Blir
fra 15. klokken 13 UTC til 15. klokken 15 UTC
Brutte skyer i en høyde av 500 ft
Midlertidig
fra 15. klokken 13 UTC til 15. klokken 15 UTC
Sikt: 2000 m
Brutte skyer i en høyde av 200 ft
dis

TAF: EFKE 150527Z 1506/1515 26003KT CAVOK BECMG 1513/1515 BKN005 TEMPO 1513/1515 2000 BR BKN002

Værobservasjoner og værvarsel for over 4000 flyplasser (METAR- og TAF-rapporter).

Tilgjengelige stasjoner er representert av de røde og gule prikkene på kartet.

Hold musepekeren over prikken for å se navnet på stasjonen.

Klikk så for å se værobservasjoner og -varsler.

For å forandre kartet kan du klikke på den grønne knappen med svart kryss for å zoome inn, på den grønne knappen med strek for å zoome ut, eller på de grønne pilene for å se tilstøtende kart.


METAR-TAF: